Saint Anne/Alderney Island, United Kingdom
Current Conditions -  °F | °C
As of 7:20 PM on Sunday 23 Nov 2014 (Local Time) from EGJA Reporting Station
Scattered Clouds Scattered Clouds  
Wind Chill: 43°   Ceiling: Unl
Heat Index: 48°   Visibility: 6mi
Dew Point: 43°   Wind: 13mph
Humidity: 82%   Direction: 10°N
Pressure: 30.09"   Gusts: NA
Location:  49.67°N, 2.17°W
Report Text: EGJA 231820Z 01011KT 340V070 9999 SCT025 09/06 Q1019
Loading
Personal Weather Stations






























Interactive Weather Map New forecast layout! Learn more

10-Day Weather Forecast

Advertisements
Track Severe Weather on mobile